Time;durP1;ratioP1;P1;durP2;ratioP2;P2;SDS_P1;SDS_P2;PMS_P1;PMS_P2;Temp;Humidity;BMP_temperature;BMP_pressure;BME280_temperature;BME280_humidity;BME280_pressure;Samples;Min_cycle;Max_cycle;Signal;HPM_P1;HPM_P2
2023/01/02 00:01:04;;;;;;;12.43;2.17;;;6.30;99.90;;;;;;4982490;28;20056;-59
2023/01/02 00:03:32;;;;;;;10.43;2.20;;;6.30;99.90;;;;;;4983366;28;20038;-59
2023/01/02 00:06:04;;;;;;;14.35;2.28;;;6.30;99.90;;;;;;4985747;28;20050;-59
2023/01/02 00:08:32;;;;;;;11.23;2.22;;;6.30;99.90;;;;;;4983625;28;20053;-59
2023/01/02 00:10:59;;;;;;;7.55;2.58;;;7.40;99.90;;;;;;4981489;28;20055;-59
2023/01/02 00:13:27;;;;;;;12.50;2.05;;;6.30;99.90;;;;;;4982125;28;20054;-61
2023/01/02 00:15:55;;;;;;;8.38;2.40;;;6.30;99.90;;;;;;4981163;28;20046;-60
2023/01/02 00:18:22;;;;;;;14.73;3.03;;;6.30;99.90;;;;;;4980569;28;20429;-61
2023/01/02 00:20:50;;;;;;;11.43;2.80;;;6.20;99.90;;;;;;4982567;28;20601;-61
2023/01/02 00:23:18;;;;;;;10.60;2.65;;;6.20;99.90;;;;;;5012227;28;20061;-59
2023/01/02 00:25:48;;;;;;;13.50;2.20;;;6.20;99.90;;;;;;4984413;28;20042;-61
2023/01/02 00:28:16;;;;;;;11.65;2.42;;;6.20;99.90;;;;;;4986355;28;20042;-59
2023/01/02 00:30:44;;;;;;;9.90;2.50;;;6.20;99.90;;;;;;4980826;28;20513;-59
2023/01/02 00:33:12;;;;;;;12.85;2.67;;;6.20;99.90;;;;;;4983721;28;20050;-59
2023/01/02 00:35:39;;;;;;;9.68;2.17;;;6.20;99.90;;;;;;4981043;28;20658;-61
2023/01/02 00:38:07;;;;;;;14.10;2.42;;;6.10;99.90;;;;;;4981732;28;20046;-60
2023/01/02 00:40:35;;;;;;;12.82;2.85;;;6.10;99.90;;;;;;4980864;28;20509;-61
2023/01/02 00:43:03;;;;;;;8.98;2.40;;;6.10;99.90;;;;;;4982662;28;20501;-60
2023/01/02 00:45:31;;;;;;;10.88;2.47;;;6.00;99.90;;;;;;4982121;28;20042;-61
2023/01/02 00:47:59;;;;;;;9.30;2.13;;;5.90;99.90;;;;;;4981293;28;20146;-60
2023/01/02 00:50:26;;;;;;;14.13;2.63;;;5.90;99.90;;;;;;4981970;28;20042;-60
2023/01/02 00:52:54;;;;;;;14.63;2.25;;;5.90;99.90;;;;;;4981206;28;20057;-61
2023/01/02 00:55:21;;;;;;;8.27;2.72;;;5.80;99.90;;;;;;4981637;28;20046;-60
2023/01/02 00:57:49;;;;;;;9.13;2.25;;;5.70;99.90;;;;;;4982704;28;20511;-59
2023/01/02 01:00:17;;;;;;;10.27;2.60;;;5.70;99.90;;;;;;4984630;28;20122;-61
2023/01/02 01:02:55;;;;;;;12.20;1.98;;;5.70;99.90;;;;;;4984845;28;20050;-62
2023/01/02 01:05:25;;;;;;;7.78;2.28;;;5.60;99.90;;;;;;4981325;28;20447;-59
2023/01/02 01:07:56;;;;;;;8.02;1.95;;;5.60;99.90;;;;;;4984764;28;20038;-59
2023/01/02 01:10:25;;;;;;;9.05;1.73;;;5.50;99.90;;;;;;4984889;28;20055;-59
2023/01/02 01:12:53;;;;;;;13.70;2.60;;;5.50;99.90;;;;;;4985432;28;21864;-59
2023/01/02 01:15:20;;;;;;;11.00;2.95;;;5.60;99.90;;;;;;4984992;28;20054;-59
2023/01/02 01:17:48;;;;;;;10.43;2.15;;;5.50;99.90;;;;;;4985923;28;20053;-59
2023/01/02 01:20:16;;;;;;;8.27;2.25;;;5.50;99.90;;;;;;4986314;28;20134;-60
2023/01/02 01:22:43;;;;;;;8.43;1.60;;;5.50;99.90;;;;;;4985231;28;20046;-59
2023/01/02 01:25:11;;;;;;;8.43;2.05;;;;;;;;;;4984459;28;20054;-59
2023/01/02 01:27:39;;;;;;;10.02;2.78;;;5.60;99.90;;;;;;4985743;28;20390;-59
2023/01/02 01:30:07;;;;;;;10.60;2.50;;;5.60;99.90;;;;;;4989599;28;20556;-58
2023/01/02 01:32:35;;;;;;;14.25;3.50;;;5.60;99.90;;;;;;4983808;28;20434;-59
2023/01/02 01:35:03;;;;;;;6.60;1.88;;;5.70;99.90;;;;;;4981345;28;20046;-59
2023/01/02 01:37:30;;;;;;;7.15;2.30;;;5.70;99.90;;;;;;4984788;28;20050;-59
2023/01/02 01:39:58;;;;;;;10.38;2.85;;;5.70;99.90;;;;;;4999506;28;20473;-59
2023/01/02 01:42:33;;;;;;;9.98;3.00;;;5.70;99.90;;;;;;4982337;28;20054;-59
2023/01/02 01:45:01;;;;;;;5.50;2.47;;;5.80;99.90;;;;;;4985222;28;20046;-59
2023/01/02 01:47:38;;;;;;;16.27;2.38;;;5.80;99.90;;;;;;4983144;28;20057;-59
2023/01/02 01:50:13;;;;;;;9.13;2.03;;;5.90;99.90;;;;;;4985029;28;20042;-59
2023/01/02 01:52:48;;;;;;;11.55;2.47;;;5.90;99.90;;;;;;4982771;28;20043;-59
2023/01/02 01:55:31;;;;;;;16.00;3.80;;;5.90;99.90;;;;;;4985121;28;20612;-59
2023/01/02 01:58:10;;;;;;;9.60;3.50;;;5.90;99.90;;;;;;4985608;28;20045;-59
2023/01/02 02:00:40;;;;;;;13.93;3.78;;;5.90;99.90;;;;;;4982300;28;20059;-59
2023/01/02 02:03:12;;;;;;;10.48;3.00;;;5.90;99.90;;;;;;4984774;28;20154;-59
2023/01/02 02:05:42;;;;;;;11.30;3.30;;;6.00;99.90;;;;;;4987438;28;20046;-59
2023/01/02 02:08:23;;;;;;;19.30;3.83;;;6.00;99.90;;;;;;4982493;28;20486;-59
2023/01/02 02:10:53;;;;;;;9.13;3.28;;;6.10;99.90;;;;;;4987630;28;20517;-59
2023/01/02 02:13:21;;;;;;;11.30;2.92;;;6.10;99.90;;;;;;4998729;28;20050;-58
2023/01/02 02:16:21;;;;;;;14.50;3.53;;;6.10;99.90;;;;;;4982932;28;20050;-59
2023/01/02 02:19:27;;;;;;;11.77;3.03;;;6.10;99.90;;;;;;4983273;28;20050;-58
2023/01/02 02:21:54;;;;;;;18.83;3.80;;;6.20;99.90;;;;;;4980762;28;20042;-58
2023/01/02 02:24:37;;;;;;;8.73;2.90;;;6.10;99.90;;;;;;4983952;28;20065;-58
2023/01/02 02:27:19;;;;;;;9.68;2.85;;;6.20;99.90;;;;;;4984002;28;20050;-58
2023/01/02 02:30:15;;;;;;;9.27;2.25;;;6.20;99.90;;;;;;4984981;28;20407;-59
2023/01/02 02:32:45;;;;;;;5.18;2.90;;;6.20;99.90;;;;;;4986559;28;20042;-59
2023/01/02 02:35:25;;;;;;;7.90;2.97;;;6.20;99.90;;;;;;4990836;28;20042;-58
2023/01/02 02:38:13;;;;;;;16.70;3.60;;;6.20;99.90;;;;;;4985893;28;20502;-58
2023/01/02 02:41:03;;;;;;;7.45;2.90;;;6.10;99.90;;;;;;5002418;28;20046;-59
2023/01/02 02:43:45;;;;;;;21.65;3.30;;;6.10;99.90;;;;;;4987816;28;20061;-59
2023/01/02 02:46:34;;;;;;;9.20;2.92;;;6.10;99.90;;;;;;4983052;28;20425;-59
2023/01/02 02:49:26;;;;;;;6.93;2.22;;;6.10;99.90;;;;;;4982191;28;20042;-58
2023/01/02 02:52:28;;;;;;;5.78;2.17;;;6.10;99.90;;;;;;4978177;28;20046;-59
2023/01/02 02:55:21;;;;;;;5.03;2.28;;;6.00;99.90;;;;;;4985512;28;20057;-59
2023/01/02 02:57:50;;;;;;;9.48;2.22;;;6.00;99.90;;;;;;4984498;28;20062;-59
2023/01/02 03:00:21;;;;;;;6.60;1.75;;;5.90;99.90;;;;;;4985899;28;20042;-59
2023/01/02 03:02:49;;;;;;;2.90;1.67;;;5.90;99.90;;;;;;4986155;28;20417;-59
2023/01/02 03:05:36;;;;;;;6.43;1.20;;;5.80;99.90;;;;;;4987698;28;20490;-59
2023/01/02 03:08:21;;;;;;;8.93;2.20;;;5.70;99.90;;;;;;4985833;28;20053;-59
2023/01/02 03:11:00;;;;;;;7.40;2.20;;;5.70;99.90;;;;;;4985011;28;20086;-59
2023/01/02 03:13:28;;;;;;;7.65;3.10;;;5.50;99.90;;;;;;4983349;28;20296;-60
2023/01/02 03:16:17;;;;;;;6.25;2.20;;;5.50;99.90;;;;;;4984406;28;20063;-60
2023/01/02 03:18:51;;;;;;;7.15;2.35;;;5.40;99.90;;;;;;4984882;28;20497;-60
2023/01/02 03:21:28;;;;;;;7.65;2.47;;;5.30;99.90;;;;;;4985311;28;20038;-59
2023/01/02 03:24:03;;;;;;;9.27;2.90;;;5.10;99.90;;;;;;5000875;28;20050;-60
2023/01/02 03:26:33;;;;;;;5.45;2.42;;;5.20;99.90;;;;;;4985560;28;20047;-61
2023/01/02 03:29:10;;;;;;;6.38;2.92;;;5.10;99.90;;;;;;4985957;28;20042;-60
2023/01/02 03:31:41;;;;;;;5.93;2.50;;;5.00;99.90;;;;;;4986027;28;20053;-60
2023/01/02 03:34:20;;;;;;;5.88;2.30;;;5.00;99.90;;;;;;4983628;28;20557;-60
2023/01/02 03:36:52;;;;;;;9.32;2.08;;;4.90;99.90;;;;;;4989191;28;20058;-60
2023/01/02 03:39:25;;;;;;;9.23;2.30;;;4.80;99.90;;;;;;4986098;28;20046;-60
2023/01/02 03:42:01;;;;;;;4.43;2.05;;;4.80;99.90;;;;;;4985727;28;20053;-60
2023/01/02 03:44:57;;;;;;;9.50;2.42;;;4.80;99.90;;;;;;4982520;28;20054;-60
2023/01/02 03:47:43;;;;;;;7.05;1.98;;;4.60;99.90;;;;;;4983473;28;20050;-58
2023/01/02 03:50:18;;;;;;;6.00;1.83;;;4.70;99.90;;;;;;4985802;28;20419;-59
2023/01/02 03:52:46;;;;;;;7.43;1.90;;;4.60;99.90;;;;;;4986938;28;20046;-59
2023/01/02 03:55:14;;;;;;;12.52;2.22;;;4.60;99.90;;;;;;4984683;28;20528;-59
2023/01/02 03:58:02;;;;;;;6.03;3.33;;;4.60;99.90;;;;;;4982816;28;20050;-58
2023/01/02 04:00:43;;;;;;;5.85;2.33;;;4.50;99.90;;;;;;4986728;28;20406;-59
2023/01/02 04:03:20;;;;;;;7.35;2.78;;;4.40;99.90;;;;;;4985565;28;20042;-59
2023/01/02 04:05:55;;;;;;;6.88;2.35;;;4.50;99.90;;;;;;4983315;28;20046;-58
2023/01/02 04:08:59;;;;;;;8.55;2.35;;;4.40;99.90;;;;;;4990580;28;20053;-59
2023/01/02 04:11:29;;;;;;;7.60;2.70;;;4.40;99.90;;;;;;4982336;28;20046;-59
2023/01/02 04:13:59;;;;;;;;;;;4.40;99.90;;;;;;4985800;28;20406;-58
2023/01/02 04:16:33;;;;;;;8.98;2.42;;;4.40;99.90;;;;;;4986184;28;19921;-60
2023/01/02 04:19:08;;;;;;;5.97;3.15;;;4.30;99.90;;;;;;4983028;28;20054;-57
2023/01/02 04:21:39;;;;;;;6.00;2.50;;;4.30;99.90;;;;;;4985055;28;20410;-60
2023/01/02 04:24:13;;;;;;;6.75;2.50;;;4.30;99.90;;;;;;4983463;28;20061;-60
2023/01/02 04:26:46;;;;;;;6.20;2.63;;;4.30;99.90;;;;;;5016685;28;20042;-58
2023/01/02 04:29:13;;;;;;;9.18;3.33;;;4.40;99.90;;;;;;4986293;28;20054;-59
2023/01/02 04:31:52;;;;;;;7.97;2.85;;;4.40;99.90;;;;;;4982989;28;20057;-60
2023/01/02 04:34:22;;;;;;;5.57;2.83;;;4.40;99.90;;;;;;4984743;28;20034;-59
2023/01/02 04:36:49;;;;;;;;;;;4.50;99.90;;;;;;4983415;28;20054;-59
2023/01/02 04:39:20;;;;;;;6.13;3.03;;;4.50;99.90;;;;;;4989599;28;19922;-59
2023/01/02 04:41:48;;;;;;;6.25;3.05;;;4.60;99.90;;;;;;4986655;28;20045;-59
2023/01/02 04:44:16;;;;;;;5.05;2.67;;;4.60;99.90;;;;;;4985256;28;20050;-59
2023/01/02 04:46:44;;;;;;;6.43;2.70;;;4.60;99.90;;;;;;4984703;28;20414;-59
2023/01/02 04:49:11;;;;;;;5.97;3.42;;;4.60;99.90;;;;;;4984733;28;20486;-58
2023/01/02 04:51:39;;;;;;;7.75;2.83;;;4.60;99.90;;;;;;4983459;28;20054;-60
2023/01/02 04:54:10;;;;;;;3.92;2.67;;;4.60;99.90;;;;;;4984314;28;22017;-59
2023/01/02 04:56:38;;;;;;;7.85;3.17;;;4.60;99.90;;;;;;4987152;28;20071;-60
2023/01/02 04:59:05;;;;;;;6.65;3.00;;;4.70;99.90;;;;;;4982833;28;20054;-62
2023/01/02 05:01:33;;;;;;;5.72;3.03;;;4.70;99.90;;;;;;4985632;28;20105;-60
2023/01/02 05:04:01;;;;;;;8.25;3.42;;;4.80;99.90;;;;;;4999434;28;20058;-60
2023/01/02 05:06:28;;;;;;;5.55;2.92;;;4.80;99.90;;;;;;4990599;28;20054;-62
2023/01/02 05:08:57;;;;;;;5.63;3.53;;;4.80;99.90;;;;;;4991648;28;20046;-63
2023/01/02 05:11:25;;;;;;;7.32;3.15;;;4.80;99.90;;;;;;4989808;28;20051;-59
2023/01/02 05:13:52;;;;;;;8.13;3.65;;;4.80;99.90;;;;;;5021507;28;20428;-59
2023/01/02 05:16:20;;;;;;;8.45;3.63;;;4.80;99.90;;;;;;4986332;28;20051;-59
2023/01/02 05:18:47;;;;;;;9.13;3.30;;;4.70;99.90;;;;;;4989986;28;20510;-59
2023/01/02 05:24:02;;;;;;;8.55;3.45;;;4.60;99.90;;;;;;4988804;28;20058;-59
2023/01/02 05:26:31;;;;;;;4.35;2.90;;;4.50;99.90;;;;;;4989738;28;20046;-58
2023/01/02 05:29:00;;;;;;;5.60;3.22;;;4.50;99.90;;;;;;4990045;28;20057;-59
2023/01/02 05:31:28;;;;;;;6.07;3.38;;;4.50;99.90;;;;;;4995922;28;20049;-59
2023/01/02 05:33:57;;;;;;;8.70;3.55;;;4.40;99.90;;;;;;4993756;28;20050;-58
2023/01/02 05:36:26;;;;;;;7.13;3.08;;;4.40;99.90;;;;;;4985679;28;20050;-59
2023/01/02 05:38:54;;;;;;;12.48;3.67;;;4.30;99.90;;;;;;4990080;28;20050;-59
2023/01/02 05:41:22;;;;;;;6.88;3.03;;;4.20;99.90;;;;;;4986403;28;20042;-59
2023/01/02 05:43:50;;;;;;;7.45;3.40;;;4.10;99.90;;;;;;4990892;28;20050;-62
2023/01/02 05:46:19;;;;;;;11.20;3.50;;;4.10;99.90;;;;;;4990858;28;20395;-60
2023/01/02 05:48:47;;;;;;;8.55;3.83;;;4.00;99.90;;;;;;4986049;28;20482;-60
2023/01/02 05:51:16;;;;;;;8.27;3.63;;;4.00;99.90;;;;;;4989257;28;20050;-60
2023/01/02 05:53:46;;;;;;;9.27;3.70;;;3.90;99.90;;;;;;4990127;28;20054;-60
2023/01/02 05:56:16;;;;;;;8.68;3.33;;;3.90;99.90;;;;;;4990869;28;20062;-60
2023/01/02 05:58:45;;;;;;;;;;;3.90;99.90;;;;;;4990411;28;20394;-61
2023/01/02 06:01:20;;;;;;;6.05;2.92;;;3.80;99.90;;;;;;4990064;28;19962;-60
2023/01/02 06:03:49;;;;;;;6.78;2.90;;;3.80;99.90;;;;;;4984206;28;20438;-60
2023/01/02 06:06:19;;;;;;;6.53;2.92;;;3.70;99.90;;;;;;4989239;28;20042;-60
2023/01/02 06:08:47;;;;;;;;;;;3.70;99.90;;;;;;4989586;28;20050;-60
2023/01/02 06:11:16;;;;;;;5.25;2.90;;;3.60;99.90;;;;;;4981817;28;19929;-60
2023/01/02 06:13:43;;;;;;;6.55;3.65;;;3.50;99.90;;;;;;4988759;28;20537;-59
2023/01/02 06:16:11;;;;;;;5.60;2.70;;;3.40;99.90;;;;;;4989083;28;20038;-58
2023/01/02 06:18:39;;;;;;;4.75;3.13;;;3.40;99.90;;;;;;4988395;28;20042;-59
2023/01/02 06:21:11;;;;;;;5.78;3.35;;;3.40;99.90;;;;;;4988078;28;20043;-60
2023/01/02 06:23:39;;;;;;;8.60;3.83;;;3.40;99.90;;;;;;4989452;28;20046;-59
2023/01/02 06:26:09;;;;;;;6.85;3.13;;;3.40;99.90;;;;;;4989916;28;20046;-59
2023/01/02 06:28:37;;;;;;;7.15;3.53;;;3.40;99.90;;;;;;4988458;28;20061;-60
2023/01/02 06:31:08;;;;;;;6.72;3.67;;;3.30;99.90;;;;;;4990394;28;20062;-58
2023/01/02 06:33:36;;;;;;;5.28;3.35;;;3.30;99.90;;;;;;4994876;28;20387;-61
2023/01/02 06:36:10;;;;;;;5.93;3.30;;;3.30;99.90;;;;;;4986801;28;20049;-59
2023/01/02 06:38:38;;;;;;;8.13;3.35;;;3.30;99.90;;;;;;4991309;28;20046;-59
2023/01/02 06:41:07;;;;;;;5.40;3.38;;;3.30;99.90;;;;;;4991821;28;20042;-62
2023/01/02 06:43:40;;;;;;;7.67;4.03;;;3.30;99.90;;;;;;4986382;28;20053;-59
2023/01/02 06:46:10;;;;;;;12.45;3.92;;;3.40;99.90;;;;;;4989571;28;20054;-59
2023/01/02 06:48:38;;;;;;;11.07;3.92;;;3.40;99.90;;;;;;4989626;28;20066;-60
2023/01/02 06:51:08;;;;;;;8.23;3.42;;;3.50;99.90;;;;;;4991369;28;20053;-61
2023/01/02 06:53:38;;;;;;;7.72;3.53;;;3.60;99.90;;;;;;4990378;28;20050;-61
2023/01/02 06:56:06;;;;;;;11.82;5.07;;;3.70;99.90;;;;;;5003338;28;20065;-59
2023/01/02 06:58:35;;;;;;;7.43;3.67;;;3.60;99.90;;;;;;4983966;28;20061;-58
2023/01/02 07:01:15;;;;;;;10.23;2.90;;;2.90;99.90;;;;;;5019509;28;20065;-59
2023/01/02 07:03:43;;;;;;;6.90;3.50;;;3.70;99.90;;;;;;5007892;28;20045;-61
2023/01/02 07:06:16;;;;;;;5.28;3.05;;;3.60;99.90;;;;;;4987650;28;20094;-59
2023/01/02 07:08:44;;;;;;;5.28;3.47;;;3.60;99.90;;;;;;4988551;28;20415;-59
2023/01/02 07:11:21;;;;;;;4.00;2.92;;;3.50;99.90;;;;;;4989800;28;20050;-59
2023/01/02 07:13:50;;;;;;;6.43;3.10;;;3.40;99.90;;;;;;4988076;28;20050;-59
2023/01/02 07:16:20;;;;;;;7.13;3.53;;;3.40;99.90;;;;;;4979728;28;20046;-60
2023/01/02 07:18:50;;;;;;;5.38;3.60;;;3.30;99.90;;;;;;4986329;28;20085;-59
2023/01/02 07:21:17;;;;;;;7.60;3.30;;;3.30;99.90;;;;;;4986291;28;20054;-57
2023/01/02 07:23:45;;;;;;;5.07;3.10;;;3.20;99.90;;;;;;4988793;28;20042;-58
2023/01/02 07:26:13;;;;;;;4.28;2.97;;;3.10;99.90;;;;;;4988863;28;20050;-59
2023/01/02 07:28:44;;;;;;;6.90;3.38;;;3.10;99.90;;;;;;4987007;28;20509;-59
2023/01/02 07:31:14;;;;;;;7.72;3.65;;;3.10;99.90;;;;;;4991853;28;20053;-60
2023/01/02 07:33:43;;;;;;;5.78;3.13;;;3.00;99.90;;;;;;5001055;28;20038;-59
2023/01/02 07:36:18;;;;;;;5.60;3.17;;;3.00;99.90;;;;;;4989470;28;20054;-59
2023/01/02 07:38:50;;;;;;;5.85;3.25;;;2.90;99.90;;;;;;4989089;28;20046;-59
2023/01/02 07:41:20;;;;;;;7.38;3.10;;;2.90;99.90;;;;;;4987214;28;20519;-59
2023/01/02 07:43:48;;;;;;;4.43;2.80;;;2.70;99.90;;;;;;4980154;28;20066;-61
2023/01/02 07:46:18;;;;;;;8.05;3.90;;;2.80;99.90;;;;;;4988040;28;20057;-60
2023/01/02 07:48:49;;;;;;;4.63;2.95;;;2.70;99.90;;;;;;4987501;28;20166;-59
2023/01/02 07:51:17;;;;;;;5.83;3.00;;;2.70;99.90;;;;;;4985313;28;20042;-59
2023/01/02 07:53:55;;;;;;;5.57;2.92;;;2.70;99.90;;;;;;4981122;28;20046;-59
2023/01/02 07:56:24;;;;;;;4.55;3.38;;;2.70;99.90;;;;;;4988624;28;20042;-60
2023/01/02 07:58:52;;;;;;;6.95;3.92;;;2.60;99.90;;;;;;4989497;28;20069;-59
2023/01/02 08:01:20;;;;;;;5.65;3.42;;;2.60;99.90;;;;;;4984448;28;20053;-59
2023/01/02 08:03:47;;;;;;;5.93;3.40;;;2.50;99.90;;;;;;4985756;28;20053;-59
2023/01/02 08:06:17;;;;;;;5.47;3.17;;;2.50;99.90;;;;;;4983906;28;20050;-60
2023/01/02 08:08:46;;;;;;;4.90;2.65;;;2.50;99.90;;;;;;4988390;28;20047;-60
2023/01/02 08:11:17;;;;;;;4.90;3.08;;;2.40;99.90;;;;;;4990234;28;20054;-59
2023/01/02 08:13:46;;;;;;;4.80;3.00;;;2.40;99.90;;;;;;4988944;28;20520;-59
2023/01/02 08:16:16;;;;;;;4.97;2.85;;;2.40;99.90;;;;;;4984556;28;20073;-59
2023/01/02 08:18:45;;;;;;;5.85;3.13;;;2.40;99.90;;;;;;4988431;28;20538;-61
2023/01/02 08:21:13;;;;;;;7.07;3.50;;;2.30;99.90;;;;;;4989693;28;20049;-60
2023/01/02 08:23:41;;;;;;;5.97;3.67;;;2.40;99.90;;;;;;4990348;28;20410;-60
2023/01/02 08:26:09;;;;;;;5.63;3.22;;;2.30;99.90;;;;;;4986425;28;20054;-61
2023/01/02 08:28:39;;;;;;;7.20;3.63;;;2.40;99.90;;;;;;5003325;28;20057;-61
2023/01/02 08:31:14;;;;;;;7.47;3.67;;;2.50;99.90;;;;;;4988125;28;20058;-59
2023/01/02 08:33:42;;;;;;;11.38;3.45;;;2.50;99.90;;;;;;4979845;28;20514;-60
2023/01/02 08:36:10;;;;;;;5.53;3.70;;;2.60;99.90;;;;;;4987648;28;20047;-59
2023/01/02 08:38:38;;;;;;;7.20;3.65;;;2.70;99.90;;;;;;4987236;28;20058;-58
2023/01/02 08:41:06;;;;;;;7.38;3.60;;;2.80;99.90;;;;;;4984022;28;20386;-61
2023/01/02 08:43:35;;;;;;;5.53;3.70;;;2.80;99.90;;;;;;4988562;28;20509;-60
2023/01/02 08:46:07;;;;;;;10.77;3.67;;;2.90;99.90;;;;;;4988881;28;20061;-58
2023/01/02 08:48:35;;;;;;;8.05;3.45;;;2.90;99.90;;;;;;4988811;28;20050;-59
2023/01/02 08:51:03;;;;;;;9.35;3.60;;;3.00;99.90;;;;;;4978881;28;20062;-59
2023/01/02 08:53:31;;;;;;;6.32;3.20;;;3.00;99.90;;;;;;4987703;28;20049;-59
2023/01/02 08:56:19;;;;;;;5.78;2.58;;;3.00;99.90;;;;;;4987001;28;20049;-61
2023/01/02 08:58:55;;;;;;;8.63;2.97;;;3.10;99.90;;;;;;4989354;28;20046;-59
2023/01/02 09:01:24;;;;;;;3.25;2.33;;;3.10;99.90;;;;;;4985183;28;20082;-60
2023/01/02 09:03:52;;;;;;;;;;;3.10;99.90;;;;;;4977901;28;20061;-60
2023/01/02 09:06:21;;;;;;;6.47;3.53;;;3.10;99.90;;;;;;4989224;28;19922;-59
2023/01/02 09:08:56;;;;;;;5.60;2.47;;;3.10;99.90;;;;;;4989955;28;20058;-59
2023/01/02 09:11:27;;;;;;;6.13;2.88;;;3.20;99.90;;;;;;4988232;28;20035;-60
2023/01/02 09:13:57;;;;;;;4.57;2.90;;;3.20;99.90;;;;;;4983476;28;20046;-60
2023/01/02 09:16:25;;;;;;;7.22;3.10;;;3.30;99.90;;;;;;4987070;28;20479;-60
2023/01/02 09:18:56;;;;;;;8.52;3.00;;;3.40;99.90;;;;;;4987339;28;20513;-60
2023/01/02 09:21:24;;;;;;;5.82;3.15;;;3.40;99.90;;;;;;4990395;28;20053;-60
2023/01/02 09:23:51;;;;;;;4.78;3.05;;;3.50;99.90;;;;;;4987711;28;20034;-60
2023/01/02 09:26:19;;;;;;;4.57;2.60;;;3.50;99.90;;;;;;4991601;28;20062;-60
2023/01/02 09:28:47;;;;;;;6.40;3.35;;;3.50;99.90;;;;;;4998509;28;20045;-60
2023/01/02 09:31:15;;;;;;;4.47;3.00;;;3.60;99.90;;;;;;4989838;28;20054;-60
2023/01/02 09:33:44;;;;;;;4.88;2.88;;;3.70;99.90;;;;;;4990158;28;20073;-60
2023/01/02 09:36:14;;;;;;;6.72;3.33;;;3.70;99.90;;;;;;4997633;28;20039;-60
2023/01/02 09:38:42;;;;;;;5.10;3.05;;;3.70;99.90;;;;;;4992339;28;20061;-60
2023/01/02 09:41:25;;;;;;;4.43;2.85;;;3.70;99.90;;;;;;4990742;28;20054;-60
2023/01/02 09:44:01;;;;;;;4.32;2.70;;;3.80;99.90;;;;;;4992615;28;20043;-60
2023/01/02 09:46:48;;;;;;;5.43;2.97;;;3.80;99.90;;;;;;4988697;28;20046;-59
2023/01/02 09:49:26;;;;;;;5.35;3.20;;;3.80;99.90;;;;;;4991527;28;20038;-60
2023/01/02 09:51:53;;;;;;;6.47;3.30;;;3.90;99.90;;;;;;4990658;28;20042;-60
2023/01/02 09:54:27;;;;;;;6.38;3.47;;;3.90;99.90;;;;;;4990591;28;20056;-59
2023/01/02 09:57:21;;;;;;;5.35;2.95;;;4.00;99.90;;;;;;4992597;28;20410;-59
2023/01/02 10:00:17;;;;;;;5.90;2.70;;;4.00;99.90;;;;;;4989539;28;20043;-59
2023/01/02 10:02:59;;;;;;;4.88;2.83;;;4.10;99.90;;;;;;4990515;28;21618;-60
2023/01/02 10:05:49;;;;;;;7.30;2.70;;;4.10;99.90;;;;;;4987703;28;20043;-61
2023/01/02 10:08:47;;;;;;;10.38;4.50;;;4.20;99.90;;;;;;4987527;28;20402;-61
2023/01/02 10:11:22;;;;;;;12.35;5.78;;;4.30;99.90;;;;;;4986948;28;20073;-61
2023/01/02 10:13:58;;;;;;;7.78;3.72;;;4.30;99.90;;;;;;4987214;28;20068;-59
2023/01/02 10:16:50;;;;;;;7.13;2.40;;;4.40;99.90;;;;;;4988376;28;20046;-61
2023/01/02 10:20:00;;;;;;;4.07;2.05;;;4.40;99.90;;;;;;4985689;28;20042;-60
2023/01/02 10:22:36;;;;;;;4.57;1.73;;;4.50;99.90;;;;;;4986395;28;20525;-60
2023/01/02 10:25:21;;;;;;;3.60;2.42;;;4.50;99.90;;;;;;4987192;28;20042;-60
2023/01/02 10:27:55;;;;;;;2.17;1.70;;;4.60;99.90;;;;;;4989113;28;20051;-60
2023/01/02 10:30:25;;;;;;;4.72;2.20;;;4.70;99.90;;;;;;4986739;28;20671;-60
2023/01/02 10:33:04;;;;;;;3.78;2.10;;;4.70;99.90;;;;;;4988357;28;20054;-60
2023/01/02 10:35:37;;;;;;;5.20;1.45;;;4.80;99.90;;;;;;4992860;28;20046;-60
2023/01/02 10:38:05;;;;;;;4.60;2.30;;;4.90;99.90;;;;;;4985561;28;20061;-60
2023/01/02 10:40:34;;;;;;;3.92;2.53;;;4.90;99.90;;;;;;4983542;28;20096;-58
2023/01/02 10:43:02;;;;;;;2.50;1.70;;;4.90;99.90;;;;;;4990524;28;20069;-59
2023/01/02 10:45:32;;;;;;;3.67;2.08;;;5.00;99.90;;;;;;4990452;28;20072;-60
2023/01/02 10:48:00;;;;;;;4.30;1.75;;;5.00;99.90;;;;;;4984605;28;20042;-59
2023/01/02 10:50:35;;;;;;;2.45;2.03;;;5.10;99.90;;;;;;4985298;28;20047;-60
2023/01/02 10:53:36;;;;;;;5.00;2.08;;;5.00;99.90;;;;;;4984835;28;20046;-59
2023/01/02 10:56:24;;;;;;;6.15;1.95;;;5.10;99.90;;;;;;4987275;28;20057;-61
2023/01/02 10:58:52;;;;;;;4.15;2.30;;;5.10;99.90;;;;;;4987900;28;20063;-61
2023/01/02 11:01:21;;;;;;;5.03;2.40;;;5.10;99.90;;;;;;5018720;28;20053;-60
2023/01/02 11:04:10;;;;;;;5.85;2.90;;;5.20;99.90;;;;;;4983155;28;20042;-60
2023/01/02 11:06:50;;;;;;;3.33;1.90;;;5.30;99.90;;;;;;4987370;28;20050;-60
2023/01/02 11:09:20;;;;;;;3.60;2.40;;;5.50;99.90;;;;;;4987980;28;20050;-60
2023/01/02 11:12:07;;;;;;;3.47;2.72;;;5.60;99.90;;;;;;4981846;28;20053;-60
2023/01/02 11:14:36;;;;;;;7.35;3.05;;;5.70;99.90;;;;;;4984599;28;20050;-61
2023/01/02 11:17:17;;;;;;;9.95;3.10;;;5.90;99.90;;;;;;4986038;28;20054;-60
2023/01/02 11:19:47;;;;;;;4.90;2.53;;;6.00;99.90;;;;;;4986455;28;20359;-59
2023/01/02 11:22:18;;;;;;;4.78;2.15;;;6.00;99.90;;;;;;4986242;28;20050;-60
2023/01/02 11:25:00;;;;;;;3.15;2.10;;;6.00;99.90;;;;;;4984702;28;20053;-61
2023/01/02 11:27:32;;;;;;;5.28;2.42;;;6.10;99.90;;;;;;4982420;28;20050;-60
2023/01/02 11:30:01;;;;;;;4.55;2.13;;;6.20;99.90;;;;;;4985489;28;20450;-61
2023/01/02 11:32:37;;;;;;;13.23;4.20;;;6.30;99.90;;;;;;4985366;28;20065;-60
2023/01/02 11:35:26;;;;;;;15.40;5.55;;;6.40;99.90;;;;;;4985819;28;20061;-60
2023/01/02 11:37:54;;;;;;;25.05;8.60;;;6.50;99.90;;;;;;4975050;28;20046;-60
2023/01/02 11:40:29;;;;;;;13.57;4.15;;;6.70;99.90;;;;;;4985508;28;20045;-60
2023/01/02 11:45:51;;;;;;;11.00;4.10;;;7.10;99.90;;;;;;4982856;28;20038;-58
2023/01/02 11:48:21;;;;;;;12.02;3.83;;;7.30;99.90;;;;;;4986208;28;20046;-59
2023/01/02 11:50:51;;;;;;;14.43;4.90;;;7.30;99.90;;;;;;4989632;28;20426;-59
2023/01/02 11:53:22;;;;;;;;;;;7.30;99.90;;;;;;4982547;28;20061;-59
2023/01/02 11:55:55;;;;;;;3.47;1.50;;;7.40;99.90;;;;;;4982679;28;20305;-59
2023/01/02 11:58:29;;;;;;;5.30;1.85;;;7.60;99.90;;;;;;4984864;28;20050;-59
2023/01/02 12:01:25;;;;;;;3.30;1.58;;;7.70;99.90;;;;;;4985804;28;20852;-59
2023/01/02 12:03:54;;;;;;;2.22;1.65;;;7.90;99.90;;;;;;4983575;28;20517;-59
2023/01/02 12:06:47;;;;;;;6.45;2.35;;;8.10;99.90;;;;;;4984320;28;20390;-58
2023/01/02 12:09:43;;;;;;;11.20;4.22;;;8.40;99.90;;;;;;4983536;28;20042;-61
2023/01/02 12:12:48;;;;;;;5.90;3.50;;;8.80;99.90;;;;;;4983418;28;20049;-59
2023/01/02 12:15:38;;;;;;;3.28;1.17;;;9.00;99.90;;;;;;4981601;28;20046;-58
2023/01/02 12:18:25;;;;;;;2.10;1.17;;;9.40;99.90;;;;;;5000963;28;20061;-59
2023/01/02 12:21:06;;;;;;;1.98;0.88;;;9.40;99.90;;;;;;4985180;28;20046;-58
2023/01/02 12:24:12;;;;;;;1.38;0.60;;;9.70;99.90;;;;;;4985660;28;20402;-58
2023/01/02 12:27:03;;;;;;;1.90;0.93;;;9.70;99.90;;;;;;4986407;28;20442;-58
2023/01/02 12:29:58;;;;;;;3.30;1.15;;;9.90;99.90;;;;;;4986715;28;20057;-58
2023/01/02 12:32:59;;;;;;;5.03;0.93;;;10.10;99.90;;;;;;5001531;28;20058;-59
2023/01/02 12:35:27;;;;;;;0.68;0.68;;;10.40;99.90;;;;;;4975782;28;20065;-58
2023/01/02 12:38:02;;;;;;;0.85;0.68;;;10.60;99.90;;;;;;4976573;28;20042;-58
2023/01/02 12:40:35;;;;;;;1.95;0.90;;;10.80;99.90;;;;;;5003560;28;20504;-59
2023/01/02 12:43:31;;;;;;;1.52;0.93;;;11.10;99.90;;;;;;4980486;28;20061;-60
2023/01/02 12:46:10;;;;;;;1.80;0.70;;;11.50;99.90;;;;;;4994019;28;20037;-60
2023/01/02 12:49:15;;;;;;;4.80;0.73;;;11.50;99.90;;;;;;4993446;28;20481;-59
2023/01/02 12:51:49;;;;;;;1.95;0.57;;;11.70;99.90;;;;;;5022087;28;20034;-59
2023/01/02 12:54:22;;;;;;;0.85;0.70;;;11.70;99.90;;;;;;4998177;28;20466;-58
2023/01/02 12:56:53;;;;;;;0.75;0.60;;;11.50;99.90;;;;;;4980961;28;20042;-59
2023/01/02 12:59:42;;;;;;;2.88;1.15;;;11.50;99.90;;;;;;4980219;28;20391;-59
2023/01/02 13:02:19;;;;;;;4.57;0.90;;;11.60;99.90;;;;;;4977607;28;20055;-59
2023/01/02 13:04:53;;;;;;;1.83;1.00;;;11.80;99.90;;;;;;4992519;28;20414;-59
2023/01/02 13:07:38;;;;;;;5.82;1.02;;;12.10;99.90;;;;;;4993562;28;20149;-60
2023/01/02 13:10:13;;;;;;;1.65;0.80;;;12.20;99.90;;;;;;5003593;28;20405;-60
2023/01/02 13:12:43;;;;;;;4.63;0.98;;;12.20;99.90;;;;;;5002971;28;20050;-60
2023/01/02 13:15:11;;;;;;;2.30;0.80;;;12.30;99.90;;;;;;4994700;28;20201;-60
2023/01/02 13:17:57;;;;;;;0.88;0.70;;;12.60;99.90;;;;;;4992129;28;20054;-60
2023/01/02 13:20:36;;;;;;;1.52;0.95;;;12.80;99.90;;;;;;4988457;28;20047;-59
2023/01/02 13:23:22;;;;;;;1.25;0.85;;;12.80;99.90;;;;;;4994318;28;20501;-59
2023/01/02 13:25:58;;;;;;;3.33;1.25;;;12.80;99.90;;;;;;4986331;28;20043;-59
2023/01/02 13:28:26;;;;;;;3.33;1.17;;;12.70;99.90;;;;;;4999455;28;20367;-59
2023/01/02 13:31:04;;;;;;;3.20;1.20;;;12.80;99.90;;;;;;4989507;28;20043;-59
2023/01/02 13:33:53;;;;;;;3.13;1.10;;;12.80;99.90;;;;;;4995487;28;20046;-59
2023/01/02 13:36:36;;;;;;;1.43;1.20;;;12.80;99.90;;;;;;4997583;28;20045;-58